• Join FlightAware (Why Join?)
  • Login
  • US Flag 
05:21AM EDT


 

Airport Tracker/Info


-or-


 

Live Flight TrackerFlight Track Log ✈ N28295 ✈ 06-Dec-2013 ✈ KFME - 2G9

Flight Track Log - Related Links

Times and Time Zones

All times are in EST time to prevent confusion due to time zone crossing. See the N28295 flight status page for this flight to view local times or setup timezone preferences in your user account.

Time Position Orientation Groundspeed Altitude Reporting Facility
EST Latitude Longitude Course Direction KTS MPH feet Rate Location/Type
03:09PM 39.1000 -76.8000 303° West 105 121 900  Level Potomac TRACON
03:10PM 39.1167 -76.8333 303° West 102 117 1,800 780 Climbing Potomac TRACON
03:11PM 39.1333 -76.8500 322° Northwest 103 119 2,500 600 Climbing Potomac TRACON
03:12PM 39.1500 -76.8833 303° West 109 125 3,000 420 Climbing Potomac TRACON
03:13PM 39.1833 -76.9167 322° Northwest 125 144 3,400 480 Climbing Potomac TRACON
03:14PM 39.1683 -76.9491 303° West  Level Estimated
03:14PM 39.2000 -76.9333 322° Northwest 110 127 4,000  Level Potomac TRACON
03:15PM 39.2333 -76.9667 322° Northwest 110 127 4,500 540 Climbing Potomac TRACON
03:16PM 39.2500 -76.9833 322° Northwest 105 121 5,100 540 Climbing Potomac TRACON
03:17PM 39.2667 -77.0000 322° Northwest 100 115 5,600 360 Climbing Potomac TRACON
03:18PM 39.2833 -77.0333 303° West 98 113 5,900 360 Climbing Potomac TRACON
03:19PM 39.3167 -77.0500 339° North 104 120 6,400 360 Climbing Potomac TRACON
03:20PM 39.3167 -77.0833 270° West 80 92 6,700 300 Climbing Potomac TRACON
03:21PM 39.3333 -77.1167 303° West 76 87 7,100 300 Climbing Potomac TRACON
03:22PM 39.3333 -77.1333 270° West 74 85 7,400 300 Climbing Potomac TRACON
03:23PM 39.3333 -77.1667 270° West 75 86 7,700 300 Climbing Potomac TRACON
03:24PM 39.3333 -77.2000 270° West 82 94 8,000 180 Climbing Potomac TRACON
03:25PM 39.3333 -77.2167 270° West 90 104 8,100 -60 Climbing Potomac TRACON
03:26PM 39.3333 -77.2667 270° West 105 121 7,900 -120 Descending Potomac TRACON
03:27PM 39.3500 -77.3000 303° West 104 120 7,900  Level Potomac TRACON
03:28PM 39.3500 -77.3333 270° West 102 117 7,900  Level Potomac TRACON
03:29PM 39.3500 -77.3667 270° West 99 114 7,900  Level Potomac TRACON
03:30PM 39.3500 -77.4000 270° West 101 116 7,900  Level Potomac TRACON
03:31PM 39.3500 -77.4333 270° West 102 117 7,900  Level Potomac TRACON
03:32PM 39.3667 -77.4833 293° West 103 119 7,900  Level Potomac TRACON
03:33PM 39.3667 -77.5167 270° West 103 119 7,900  Level Potomac TRACON
03:34PM 39.3667 -77.5500 270° West 100 115 7,900  Level Potomac TRACON
03:35PM 39.3667 -77.5833 270° West 97 112 7,900  Level Potomac TRACON
03:36PM 39.3667 -77.6167 270° West 97 112 7,900  Level Potomac TRACON
03:37PM 39.3667 -77.6500 270° West 98 113 7,900  Level Potomac TRACON
03:38PM 39.3833 -77.7000 293° West 98 113 7,900  Level Potomac TRACON
03:39PM 39.3833 -77.7333 270° West 94 108 7,900  Level Potomac TRACON
03:40PM 39.3833 -77.7667 270° West 92 106 7,900  Level Potomac TRACON
03:41PM 39.3833 -77.8000 270° West 88 101 7,900  Level Potomac TRACON
03:42PM 39.3833 -77.8333 270° West 82 94 7,900  Level Potomac TRACON
03:43PM 39.3833 -77.8500 270° West 92 106 7,900 -120 Level Potomac TRACON
03:44PM 39.4167 -77.8833 322° Northwest 101 116 7,700 -360 Descending Potomac TRACON
03:45PM 39.4333 -77.9167 303° West 122 140 7,200 -480 Descending Potomac TRACON
03:46PM 39.4500 -77.9500 303° West 122 140 6,700 -600 Descending Potomac TRACON
03:47PM 39.4667 -78.0000 293° West 123 142 6,000 -360 Descending Potomac TRACON
03:48PM 39.4833 -78.0333 303° West 116 133 6,000  Level Potomac TRACON
03:49PM 39.5000 -78.0667 303° West 119 137 6,000  Level Potomac TRACON
03:50PM 39.5333 -78.1000 322° Northwest 120 138 6,000  Level Potomac TRACON
03:51PM 39.5500 -78.1333 303° West 122 140 6,000  Level Potomac TRACON
03:52PM 39.5667 -78.1667 303° West 121 139 6,000  Level Potomac TRACON
03:53PM 39.5833 -78.2000 303° West 121 139 6,000  Level Potomac TRACON
03:55PM 39.6283 -78.2731 309° West 120 138 6,000  Level Cleveland Center
03:56PM 39.6494 -78.3086 308° West 124 143 6,000  Level Cleveland Center
03:57PM 39.6689 -78.3525 300° West 118 136 6,000  Level Cleveland Center
03:59PM 39.6789 -78.3922 288° West 117 135 6,000  Level Cleveland Center
04:00PM 39.6892 -78.4322 288° West 116 133 6,000  Level Cleveland Center
04:00PM 39.6942 -78.4564 285° West 113 130 6,000  Level Cleveland Center
04:01PM 39.6989 -78.4703 294° West 113 130 6,000  Level Cleveland Center
04:01PM 39.7036 -78.4956 284° West 109 125 6,000  Level Cleveland Center
04:02PM 39.7081 -78.5075 296° West 110 127 6,000  Level Cleveland Center
04:02PM 39.7133 -78.5319 286° West 110 127 6,000 -120 Level Cleveland Center
04:03PM 39.7200 -78.5547 291° West 113 130 5,900 -240 Descending Cleveland Center
04:03PM 39.7231 -78.5686 286° West 113 130 5,800 -540 Descending Cleveland Center
04:04PM 39.7314 -78.5950 292° West 115 132 5,400 -600 Descending Cleveland Center
04:04PM 39.7342 -78.6136 281° West 126 145 5,200 -540 Descending Cleveland Center
04:05PM 39.7411 -78.6397 289° West 124 143 4,900 -420 Descending Cleveland Center
04:05PM 39.7450 -78.6611 283° West 131 151 4,800 -120 Descending Cleveland Center
04:06PM 39.7517 -78.6836 291° West 129 148 4,800  Level Cleveland Center
04:06PM 39.7567 -78.7006 291° West 121 139 4,800  Level Cleveland Center
04:07PM 39.7628 -78.7239 289° West 124 143 4,800  Level Cleveland Center
04:07PM 39.7661 -78.7400 285° West 119 137 4,800  Level Cleveland Center
04:08PM 39.7753 -78.7672 294° West 121 139 4,800  Level Cleveland Center
04:08PM 39.7775 -78.7794 283° West 118 136 4,800  Level Cleveland Center
04:09PM 39.7864 -78.8100 291° West 123 142 4,800  Level Cleveland Center
04:09PM 39.7886 -78.8244 281° West 122 140 4,800  Level Cleveland Center
04:10PM 39.7978 -78.8667 286° West 119 137 4,800  Level Cleveland Center
04:11PM 39.8081 -78.8981 293° West 116 133 4,800  Level Cleveland Center
04:11PM 39.8094 -78.9036 288° West 114 131 4,800  Level Cleveland Center
04:12PM 39.8189 -78.9428 287° West 118 136 4,800  Level Cleveland Center
04:13PM 39.8278 -78.9731 291° West 116 133 4,800  Level Cleveland Center
04:13PM 39.8297 -78.9878 280° West 116 133 4,800  Level Cleveland Center
04:14PM 39.8397 -79.0208 292° West 116 133 4,800  Level Cleveland Center
04:14PM 39.8392 -79.0244 259° West 115 132 4,800  Level Cleveland Center
04:15PM 39.8497 -79.0642 289° West 122 140 4,800  Level Cleveland Center
04:15PM 39.8506 -79.0669 291° West 120 138 4,800  Level Cleveland Center
04:16PM 39.8600 -79.1042 288° West 120 138 4,800  Level Cleveland Center
04:16PM 39.8597 -79.1064 261° West 119 137 4,800  Level Cleveland Center
04:17PM 39.8708 -79.1436 291° West 117 135 4,800  Level Cleveland Center
04:17PM 39.8731 -79.1489 299° West 119 137 4,800 -120 Level Cleveland Center
04:18PM 39.9003 -79.1747 324° Northwest 122 140 4,700 -120 Descending Cleveland Center
04:19PM 39.9244 -79.1944 328° Northwest 120 138 4,600 -120 Descending Cleveland Center
04:20PM 39.9550 -79.1961 358° North 124 143 4,500 -120 Descending Cleveland Center
04:20PM 39.9564 -79.1914 69° East 120 138 4,500 -540 Level Cleveland Center
04:21PM 39.9686 -79.1597 63° Northeast 101 116 4,000 -540 Descending Cleveland Center
04:21PM 39.9703 -79.1572 49° Northeast 114 131 4,000 -300 Level Cleveland Center
04:22PM 39.9814 -79.1317 60° Northeast 83 96 3,700 -300 Descending Cleveland Center
04:22PM 39.9825 -79.1303 44° Northeast 94 108 3,700 -120 Level Cleveland Center
04:23PM 39.9933 -79.1017 64° Northeast 89 102 3,600 -180 Descending Cleveland Center
04:24PM 40.0044 -79.0803 56° Northeast 77 89 3,400 -240 Descending Cleveland Center
04:24PM 40.0058 -79.0789 37° Northeast 81 93 3,400 -420 Level Cleveland Center
04:25PM 40.0189 -79.0544 55° Northeast 78 90 2,900 -480 Descending Cleveland Center
04:26PM 40.0319 -79.0256 59° Northeast 80 92 2,500 -420 Descending Cleveland Center